Weather at Spokane International Airport

Public forecast

Using degrees Fahrenheit for public forecast. Weather courtesy of forecast.io.

Current aviation weather report (METAR) for Spokane International Airport

Retrieved 2020/10/29 15:53 UTC (51 minutes ago):

KGEG 291553Z 16007KT 10SM FEW080 BKN200 05/01 A3011 RMK AO2 SLP207 T00500011

Aviation forecast (TAF) for Spokane International Airport

Retrieved 2020/10/29 12:30 UTC (4 hours ago):

TAF KGEG 291127Z 2912/3012 15004KT P6SM FEW120 BKN250 FM291600 17004KT P6SM FEW250 FM300000 06004KT P6SM SKC FM301000 06004KT P6SM SCT005 BKN035 BKN250